sensor_id;sensor_type;location;lat;lon;timestamp;pressure;altitude;pressure_sealevel;temperature;humidity
26823;BME280;14852;51.910;8.878;2023-02-03T00:01:16;100338.00;;;10.58;67.61
26823;BME280;14852;51.910;8.878;2023-02-03T00:03:42;100320.59;;;10.60;67.57
26823;BME280;14852;51.910;8.878;2023-02-03T00:06:08;100317.13;;;10.60;67.61
26823;BME280;14852;51.910;8.878;2023-02-03T00:08:35;100324.03;;;10.61;67.78
26823;BME280;14852;51.910;8.878;2023-02-03T00:11:03;100333.56;;;10.60;67.71
26823;BME280;14852;51.910;8.878;2023-02-03T00:13:29;100323.94;;;10.62;67.66
26823;BME280;14852;51.910;8.878;2023-02-03T00:15:54;100317.88;;;10.62;67.45
26823;BME280;14852;51.910;8.878;2023-02-03T00:18:20;100313.41;;;10.65;67.44
26823;BME280;14852;51.910;8.878;2023-02-03T00:20:46;100309.06;;;10.66;67.25
26823;BME280;14852;51.910;8.878;2023-02-03T00:23:12;100303.88;;;10.66;67.22
26823;BME280;14852;51.910;8.878;2023-02-03T00:25:38;100290.88;;;10.66;67.32
26823;BME280;14852;51.910;8.878;2023-02-03T00:28:05;100287.38;;;10.67;67.30
26823;BME280;14852;51.910;8.878;2023-02-03T00:30:33;100287.38;;;10.67;67.47
26823;BME280;14852;51.910;8.878;2023-02-03T00:32:59;100286.59;;;10.65;67.33
26823;BME280;14852;51.910;8.878;2023-02-03T00:35:26;100289.97;;;10.67;67.66
26823;BME280;14852;51.910;8.878;2023-02-03T00:37:55;100288.28;;;10.66;67.47
26823;BME280;14852;51.910;8.878;2023-02-03T00:40:24;100286.53;;;10.66;67.35
26823;BME280;14852;51.910;8.878;2023-02-03T00:42:50;100295.16;;;10.67;67.60
26823;BME280;14852;51.910;8.878;2023-02-03T00:45:16;100304.72;;;10.66;67.76
26823;BME280;14852;51.910;8.878;2023-02-03T00:47:42;100297.69;;;10.68;67.44
26823;BME280;14852;51.910;8.878;2023-02-03T00:50:08;100290.81;;;10.67;67.82
26823;BME280;14852;51.910;8.878;2023-02-03T00:52:35;100283.78;;;10.69;67.54
26823;BME280;14852;51.910;8.878;2023-02-03T00:55:01;100287.22;;;10.70;67.36
26823;BME280;14852;51.910;8.878;2023-02-03T00:57:27;100288.00;;;10.72;67.23
26823;BME280;14852;51.910;8.878;2023-02-03T00:59:53;100281.13;;;10.71;67.41
26823;BME280;14852;51.910;8.878;2023-02-03T01:02:19;100293.22;;;10.72;67.43
26823;BME280;14852;51.910;8.878;2023-02-03T01:04:45;100300.09;;;10.73;67.62
26823;BME280;14852;51.910;8.878;2023-02-03T01:07:11;100306.06;;;10.75;67.29
26823;BME280;14852;51.910;8.878;2023-02-03T01:09:37;100303.50;;;10.73;67.59
26823;BME280;14852;51.910;8.878;2023-02-03T01:12:04;100314.69;;;10.75;67.49
26823;BME280;14852;51.910;8.878;2023-02-03T01:14:30;100317.22;;;10.77;67.33
26823;BME280;14852;51.910;8.878;2023-02-03T01:16:56;100314.69;;;10.75;67.27
26823;BME280;14852;51.910;8.878;2023-02-03T01:19:24;100337.25;;;10.75;67.32
26823;BME280;14852;51.910;8.878;2023-02-03T01:21:50;100314.84;;;10.72;67.31
26823;BME280;14852;51.910;8.878;2023-02-03T01:24:16;100325.25;;;10.72;67.16
26823;BME280;14852;51.910;8.878;2023-02-03T01:26:42;100316.59;;;10.72;67.28
26823;BME280;14852;51.910;8.878;2023-02-03T01:29:08;100316.44;;;10.75;67.49
26823;BME280;14852;51.910;8.878;2023-02-03T01:31:39;100311.19;;;10.76;67.35
26823;BME280;14852;51.910;8.878;2023-02-03T01:34:11;100316.31;;;10.78;67.57
26823;BME280;14852;51.910;8.878;2023-02-03T01:36:37;100315.47;;;10.77;67.46
26823;BME280;14852;51.910;8.878;2023-02-03T01:39:04;100312.81;;;10.79;67.58
26823;BME280;14852;51.910;8.878;2023-02-03T01:41:35;100314.56;;;10.78;67.16
26823;BME280;14852;51.910;8.878;2023-02-03T01:44:30;100317.16;;;10.78;66.99
26823;BME280;14852;51.910;8.878;2023-02-03T01:46:48;100310.28;;;10.77;67.00
26823;BME280;14852;51.910;8.878;2023-02-03T01:49:26;100332.75;;;10.78;67.33
26823;BME280;14852;51.910;8.878;2023-02-03T01:51:54;100337.13;;;10.78;67.39
26823;BME280;14852;51.910;8.878;2023-02-03T01:54:36;100325.69;;;10.82;67.37
26823;BME280;14852;51.910;8.878;2023-02-03T01:57:09;100308.34;;;10.82;67.32
26823;BME280;14852;51.910;8.878;2023-02-03T01:59:38;100305.06;;;10.77;67.37
26823;BME280;14852;51.910;8.878;2023-02-03T02:02:05;100300.72;;;10.78;67.06
26823;BME280;14852;51.910;8.878;2023-02-03T02:04:42;100298.91;;;10.80;67.31
26823;BME280;14852;51.910;8.878;2023-02-03T02:07:11;100294.63;;;10.79;67.05
26823;BME280;14852;51.910;8.878;2023-02-03T02:09:40;100308.41;;;10.81;67.16
26823;BME280;14852;51.910;8.878;2023-02-03T02:12:10;100304.81;;;10.83;66.78
26823;BME280;14852;51.910;8.878;2023-02-03T02:14:36;100292.78;;;10.81;67.20
26823;BME280;14852;51.910;8.878;2023-02-03T02:20:30;100267.59;;;10.83;66.84
26823;BME280;14852;51.910;8.878;2023-02-03T02:23:46;100259.78;;;10.83;67.23
26823;BME280;14852;51.910;8.878;2023-02-03T02:26:58;100250.13;;;10.85;66.92
26823;BME280;14852;51.910;8.878;2023-02-03T02:33:04;100238.22;;;10.81;66.80
26823;BME280;14852;51.910;8.878;2023-02-03T02:38:37;100228.72;;;10.80;66.69
26823;BME280;14852;51.910;8.878;2023-02-03T02:41:25;100237.44;;;10.79;66.72
26823;BME280;14852;51.910;8.878;2023-02-03T02:44:11;100204.41;;;10.81;67.16
26823;BME280;14852;51.910;8.878;2023-02-03T02:46:52;100207.88;;;10.81;66.78
26823;BME280;14852;51.910;8.878;2023-02-03T02:49:53;100212.16;;;10.82;66.68
26823;BME280;14852;51.910;8.878;2023-02-03T02:52:23;100213.13;;;10.80;66.95
26823;BME280;14852;51.910;8.878;2023-02-03T02:54:54;100227.75;;;10.82;66.67
26823;BME280;14852;51.910;8.878;2023-02-03T02:57:25;100220.78;;;10.83;66.78
26823;BME280;14852;51.910;8.878;2023-02-03T02:59:53;100216.50;;;10.82;67.04
26823;BME280;14852;51.910;8.878;2023-02-03T03:02:19;100246.84;;;10.81;66.95
26823;BME280;14852;51.910;8.878;2023-02-03T03:04:47;100273.63;;;10.83;66.66
26823;BME280;14852;51.910;8.878;2023-02-03T03:07:21;100270.88;;;10.86;66.62
26823;BME280;14852;51.910;8.878;2023-02-03T03:09:56;100275.16;;;10.87;66.86
26823;BME280;14852;51.910;8.878;2023-02-03T03:12:37;100257.88;;;10.86;66.73
26823;BME280;14852;51.910;8.878;2023-02-03T03:15:14;100275.22;;;10.86;67.14
26823;BME280;14852;51.910;8.878;2023-02-03T03:17:52;100288.22;;;10.86;66.72
26823;BME280;14852;51.910;8.878;2023-02-03T03:20:22;100282.09;;;10.87;66.49
26823;BME280;14852;51.910;8.878;2023-02-03T03:22:56;100277.75;;;10.87;66.68
26823;BME280;14852;51.910;8.878;2023-02-03T03:25:30;100275.94;;;10.89;66.70
26823;BME280;14852;51.910;8.878;2023-02-03T03:28:03;100258.66;;;10.88;66.49
26823;BME280;14852;51.910;8.878;2023-02-03T03:30:33;100251.63;;;10.91;66.34
26823;BME280;14852;51.910;8.878;2023-02-03T03:33:01;100249.16;;;10.87;66.51
26823;BME280;14852;51.910;8.878;2023-02-03T03:38:24;100230.06;;;10.88;66.17
26823;BME280;14852;51.910;8.878;2023-02-03T03:41:43;100234.28;;;10.91;66.17
26823;BME280;14852;51.910;8.878;2023-02-03T03:44:15;100229.22;;;10.88;66.72
26823;BME280;14852;51.910;8.878;2023-02-03T03:46:54;100226.53;;;10.89;66.35
26823;BME280;14852;51.910;8.878;2023-02-03T03:49:24;100239.53;;;10.89;66.28
26823;BME280;14852;51.910;8.878;2023-02-03T03:51:58;100223.88;;;10.91;66.10
26823;BME280;14852;51.910;8.878;2023-02-03T03:54:27;100224.78;;;10.90;66.54
26823;BME280;14852;51.910;8.878;2023-02-03T03:59:33;100223.94;;;10.89;66.39
26823;BME280;14852;51.910;8.878;2023-02-03T04:02:01;100219.59;;;10.90;66.21
26823;BME280;14852;51.910;8.878;2023-02-03T04:04:32;100221.28;;;10.91;66.08
26823;BME280;14852;51.910;8.878;2023-02-03T04:06:58;100230.81;;;10.91;66.43
26823;BME280;14852;51.910;8.878;2023-02-03T04:09:24;100217.81;;;10.91;66.56
26823;BME280;14852;51.910;8.878;2023-02-03T04:11:49;100199.69;;;10.89;66.43
26823;BME280;14852;51.910;8.878;2023-02-03T04:14:34;100209.25;;;10.88;66.53
26823;BME280;14852;51.910;8.878;2023-02-03T04:17:03;100187.69;;;10.86;66.06
26823;BME280;14852;51.910;8.878;2023-02-03T04:19:29;100203.28;;;10.86;66.19
26823;BME280;14852;51.910;8.878;2023-02-03T04:21:55;100195.34;;;10.89;66.47
26823;BME280;14852;51.910;8.878;2023-02-03T04:24:21;100200.53;;;10.89;66.42
26823;BME280;14852;51.910;8.878;2023-02-03T04:26:47;100195.34;;;10.89;65.93
26823;BME280;14852;51.910;8.878;2023-02-03T04:29:13;100198.78;;;10.90;66.07
26823;BME280;14852;51.910;8.878;2023-02-03T04:31:38;100205.69;;;10.91;65.98
26823;BME280;14852;51.910;8.878;2023-02-03T04:34:04;100189.31;;;10.89;66.00
26823;BME280;14852;51.910;8.878;2023-02-03T04:36:30;100199.75;;;10.87;66.33
26823;BME280;14852;51.910;8.878;2023-02-03T04:38:56;100192.88;;;10.86;66.15
26823;BME280;14852;51.910;8.878;2023-02-03T04:41:22;100196.31;;;10.87;65.89
26823;BME280;14852;51.910;8.878;2023-02-03T04:43:48;100203.44;;;10.83;66.19
26823;BME280;14852;51.910;8.878;2023-02-03T04:46:13;100190.50;;;10.82;66.15
26823;BME280;14852;51.910;8.878;2023-02-03T04:48:39;100191.41;;;10.81;66.09
26823;BME280;14852;51.910;8.878;2023-02-03T04:51:07;100181.03;;;10.81;65.75
26823;BME280;14852;51.910;8.878;2023-02-03T04:53:34;100183.56;;;10.82;65.93
26823;BME280;14852;51.910;8.878;2023-02-03T04:56:00;100180.88;;;10.84;66.20
26823;BME280;14852;51.910;8.878;2023-02-03T04:58:26;100180.88;;;10.84;65.66
26823;BME280;14852;51.910;8.878;2023-02-03T05:00:53;100174.69;;;10.86;65.63
26823;BME280;14852;51.910;8.878;2023-02-03T05:03:19;100173.16;;;10.82;65.59
26823;BME280;14852;51.910;8.878;2023-02-03T05:05:45;100162.75;;;10.82;65.68
26823;BME280;14852;51.910;8.878;2023-02-03T05:08:11;100150.59;;;10.83;65.64
26823;BME280;14852;51.910;8.878;2023-02-03T05:10:37;100140.34;;;10.80;65.73
26823;BME280;14852;51.910;8.878;2023-02-03T05:13:02;100131.63;;;10.81;65.98
26823;BME280;14852;51.910;8.878;2023-02-03T05:15:28;100135.91;;;10.82;65.85
26823;BME280;14852;51.910;8.878;2023-02-03T05:17:54;100132.41;;;10.83;65.77
26823;BME280;14852;51.910;8.878;2023-02-03T05:20:21;100124.63;;;10.83;65.55
26823;BME280;14852;51.910;8.878;2023-02-03T05:22:46;100141.91;;;10.84;65.85
26823;BME280;14852;51.910;8.878;2023-02-03T05:25:13;100139.38;;;10.82;66.02
26823;BME280;14852;51.910;8.878;2023-02-03T05:27:39;100141.13;;;10.82;65.78
26823;BME280;14852;51.910;8.878;2023-02-03T05:30:07;100139.38;;;10.82;65.57
26823;BME280;14852;51.910;8.878;2023-02-03T05:32:34;100141.13;;;10.82;65.61
26823;BME280;14852;51.910;8.878;2023-02-03T05:34:59;100140.28;;;10.81;65.67
26823;BME280;14852;51.910;8.878;2023-02-03T05:37:25;100135.09;;;10.81;65.60
26823;BME280;14852;51.910;8.878;2023-02-03T05:39:51;100142.03;;;10.81;65.75
26823;BME280;14852;51.910;8.878;2023-02-03T05:42:17;100130.78;;;10.80;65.84
26823;BME280;14852;51.910;8.878;2023-02-03T05:44:42;100132.47;;;10.81;65.51
26823;BME280;14852;51.910;8.878;2023-02-03T05:47:08;100127.22;;;10.83;65.59
26823;BME280;14852;51.910;8.878;2023-02-03T05:49:34;100130.50;;;10.86;65.81
26823;BME280;14852;51.910;8.878;2023-02-03T05:52:00;100134.00;;;10.85;65.66
26823;BME280;14852;51.910;8.878;2023-02-03T05:54:25;100138.22;;;10.88;65.58
26823;BME280;14852;51.910;8.878;2023-02-03T05:56:51;100141.59;;;10.90;65.72
26823;BME280;14852;51.910;8.878;2023-02-03T05:59:17;100146.72;;;10.92;65.26
26823;BME280;14852;51.910;8.878;2023-02-03T06:01:43;100146.66;;;10.93;65.21
26823;BME280;14852;51.910;8.878;2023-02-03T06:04:09;100149.25;;;10.93;65.54
26823;BME280;14852;51.910;8.878;2023-02-03T06:06:34;100154.53;;;10.92;65.49
26823;BME280;14852;51.910;8.878;2023-02-03T06:09:06;100130.22;;;10.93;65.10
26823;BME280;14852;51.910;8.878;2023-02-03T06:11:33;100145.03;;;10.91;65.12
26823;BME280;14852;51.910;8.878;2023-02-03T06:14:00;100139.78;;;10.92;65.47
26823;BME280;14852;51.910;8.878;2023-02-03T06:16:27;100132.03;;;10.91;65.03
26823;BME280;14852;51.910;8.878;2023-02-03T06:18:54;100137.16;;;10.92;65.47
26823;BME280;14852;51.910;8.878;2023-02-03T06:21:24;100144.13;;;10.92;65.07
26823;BME280;14852;51.910;8.878;2023-02-03T06:23:49;100135.63;;;10.88;65.16
26823;BME280;14852;51.910;8.878;2023-02-03T06:26:15;100143.50;;;10.86;65.17
26823;BME280;14852;51.910;8.878;2023-02-03T06:28:41;100132.47;;;10.81;65.43
26823;BME280;14852;51.910;8.878;2023-02-03T06:31:07;100132.69;;;10.77;65.71
26823;BME280;14852;51.910;8.878;2023-02-03T06:33:33;100137.09;;;10.75;65.94
26823;BME280;14852;51.910;8.878;2023-02-03T06:35:59;100139.09;;;10.70;65.81
26823;BME280;14852;51.910;8.878;2023-02-03T06:38:25;100127.00;;;10.69;66.03
26823;BME280;14852;51.910;8.878;2023-02-03T06:40:50;100151.38;;;10.66;65.73
26823;BME280;14852;51.910;8.878;2023-02-03T06:43:16;100141.19;;;10.62;66.19
26823;BME280;14852;51.910;8.878;2023-02-03T06:45:45;100154.28;;;10.60;66.26
26823;BME280;14852;51.910;8.878;2023-02-03T06:48:12;100150.97;;;10.57;66.46
26823;BME280;14852;51.910;8.878;2023-02-03T06:50:39;100149.34;;;10.54;66.57
26823;BME280;14852;51.910;8.878;2023-02-03T06:53:05;100150.31;;;10.51;66.56
26823;BME280;14852;51.910;8.878;2023-02-03T06:55:30;100134.66;;;10.53;66.48
26823;BME280;14852;51.910;8.878;2023-02-03T06:57:56;100135.44;;;10.55;66.71
26823;BME280;14852;51.910;8.878;2023-02-03T07:00:22;100139.03;;;10.52;66.90
26823;BME280;14852;51.910;8.878;2023-02-03T07:02:57;100148.44;;;10.55;66.67
26823;BME280;14852;51.910;8.878;2023-02-03T07:05:25;100142.41;;;10.55;66.48
26823;BME280;14852;51.910;8.878;2023-02-03T07:07:52;100146.75;;;10.54;66.74
26823;BME280;14852;51.910;8.878;2023-02-03T07:10:18;100152.84;;;10.53;66.83
26823;BME280;14852;51.910;8.878;2023-02-03T07:12:44;100147.72;;;10.51;67.12
26823;BME280;14852;51.910;8.878;2023-02-03T07:15:11;100147.66;;;10.53;67.28
26823;BME280;14852;51.910;8.878;2023-02-03T07:17:37;100158.97;;;10.52;66.76
26823;BME280;14852;51.910;8.878;2023-02-03T07:20:04;100165.06;;;10.51;67.08
26823;BME280;14852;51.910;8.878;2023-02-03T07:22:29;100145.13;;;10.51;67.24
26823;BME280;14852;51.910;8.878;2023-02-03T07:24:55;100148.63;;;10.50;67.39
26823;BME280;14852;51.910;8.878;2023-02-03T07:27:21;100139.25;;;10.48;66.93
26823;BME280;14852;51.910;8.878;2023-02-03T07:29:47;100137.56;;;10.47;67.37
26823;BME280;14852;51.910;8.878;2023-02-03T07:32:13;100141.97;;;10.45;67.43
26823;BME280;14852;51.910;8.878;2023-02-03T07:34:39;100147.09;;;10.46;67.49
26823;BME280;14852;51.910;8.878;2023-02-03T07:37:04;100132.31;;;10.48;67.52
26823;BME280;14852;51.910;8.878;2023-02-03T07:39:30;100119.44;;;10.45;67.42
26823;BME280;14852;51.910;8.878;2023-02-03T07:41:57;100122.03;;;10.45;67.29
26823;BME280;14852;51.910;8.878;2023-02-03T07:44:24;100110.81;;;10.45;67.61
26823;BME280;14852;51.910;8.878;2023-02-03T07:46:49;100115.09;;;10.46;67.54
26823;BME280;14852;51.910;8.878;2023-02-03T07:49:15;100107.22;;;10.47;67.24
26823;BME280;14852;51.910;8.878;2023-02-03T07:51:41;100121.13;;;10.46;67.70
26823;BME280;14852;51.910;8.878;2023-02-03T07:54:07;100125.56;;;10.44;67.70
26823;BME280;14852;51.910;8.878;2023-02-03T07:56:32;100121.25;;;10.43;67.79
26823;BME280;14852;51.910;8.878;2023-02-03T07:58:59;100116.91;;;10.44;67.65
26823;BME280;14852;51.910;8.878;2023-02-03T08:01:25;100096.19;;;10.42;67.97
26823;BME280;14852;51.910;8.878;2023-02-03T08:03:51;100111.72;;;10.44;67.98
26823;BME280;14852;51.910;8.878;2023-02-03T08:06:17;100112.56;;;10.44;67.85
26823;BME280;14852;51.910;8.878;2023-02-03T08:08:42;100104.75;;;10.44;67.68
26823;BME280;14852;51.910;8.878;2023-02-03T08:11:09;100119.44;;;10.45;68.10
26823;BME280;14852;51.910;8.878;2023-02-03T08:13:35;100139.25;;;10.48;67.83
26823;BME280;14852;51.910;8.878;2023-02-03T08:16:01;100117.75;;;10.44;67.88
26823;BME280;14852;51.910;8.878;2023-02-03T08:18:27;100113.47;;;10.43;67.88
26823;BME280;14852;51.910;8.878;2023-02-03T08:20:53;100117.81;;;10.43;68.20
26823;BME280;14852;51.910;8.878;2023-02-03T08:23:19;100119.66;;;10.41;68.38
26823;BME280;14852;51.910;8.878;2023-02-03T08:25:48;100129.25;;;10.39;68.22
26823;BME280;14852;51.910;8.878;2023-02-03T08:28:14;100118.88;;;10.39;68.28
26823;BME280;14852;51.910;8.878;2023-02-03T08:30:40;100117.22;;;10.38;68.78
26823;BME280;14852;51.910;8.878;2023-02-03T08:33:06;100112.00;;;10.38;68.63
26823;BME280;14852;51.910;8.878;2023-02-03T08:35:31;100109.31;;;10.39;68.72
26823;BME280;14852;51.910;8.878;2023-02-03T08:37:57;100132.63;;;10.41;68.71
26823;BME280;14852;51.910;8.878;2023-02-03T08:40:23;100111.78;;;10.42;68.33
26823;BME280;14852;51.910;8.878;2023-02-03T08:42:49;100095.22;;;10.45;68.59
26823;BME280;14852;51.910;8.878;2023-02-03T08:45:14;100126.41;;;10.45;68.58
26823;BME280;14852;51.910;8.878;2023-02-03T08:47:40;100121.97;;;10.47;68.44
26823;BME280;14852;51.910;8.878;2023-02-03T08:50:08;100119.16;;;10.51;68.33
26823;BME280;14852;51.910;8.878;2023-02-03T08:52:33;100093.22;;;10.50;68.57
26823;BME280;14852;51.910;8.878;2023-02-03T08:54:59;100108.81;;;10.50;68.68
26823;BME280;14852;51.910;8.878;2023-02-03T08:57:25;100099.28;;;10.50;68.68
26823;BME280;14852;51.910;8.878;2023-02-03T08:59:51;100110.50;;;10.51;68.63
26823;BME280;14852;51.910;8.878;2023-02-03T09:02:18;100116.47;;;10.53;68.62
26823;BME280;14852;51.910;8.878;2023-02-03T09:04:45;100106.88;;;10.55;68.57
26823;BME280;14852;51.910;8.878;2023-02-03T09:07:12;100100.75;;;10.56;68.37
26823;BME280;14852;51.910;8.878;2023-02-03T09:09:38;100104.06;;;10.60;68.31
26823;BME280;14852;51.910;8.878;2023-02-03T09:12:06;100097.00;;;10.62;68.42
26823;BME280;14852;51.910;8.878;2023-02-03T09:14:33;100108.19;;;10.64;68.41
26823;BME280;14852;51.910;8.878;2023-02-03T09:17:03;100109.81;;;10.66;68.56
26823;BME280;14852;51.910;8.878;2023-02-03T09:19:30;100110.50;;;10.70;68.47
26823;BME280;14852;51.910;8.878;2023-02-03T09:21:56;100114.88;;;10.69;68.74
26823;BME280;14852;51.910;8.878;2023-02-03T09:24:22;100118.31;;;10.70;68.49
26823;BME280;14852;51.910;8.878;2023-02-03T09:26:49;100120.84;;;10.71;68.53
26823;BME280;14852;51.910;8.878;2023-02-03T09:29:14;100115.56;;;10.73;68.60
26823;BME280;14852;51.910;8.878;2023-02-03T09:31:40;100105.00;;;10.76;68.31
26823;BME280;14852;51.910;8.878;2023-02-03T09:34:07;100112.66;;;10.79;68.21
26823;BME280;14852;51.910;8.878;2023-02-03T09:36:33;100107.34;;;10.82;68.37
26823;BME280;14852;51.910;8.878;2023-02-03T09:38:58;100101.22;;;10.83;68.46
26823;BME280;14852;51.910;8.878;2023-02-03T09:46:55;100109.47;;;10.91;68.45
26823;BME280;14852;51.910;8.878;2023-02-03T09:49:45;100105.06;;;10.93;68.48
26823;BME280;14852;51.910;8.878;2023-02-03T09:52:28;100095.44;;;10.95;68.11
26823;BME280;14852;51.910;8.878;2023-02-03T09:57:43;100104.06;;;10.96;68.48
26823;BME280;14852;51.910;8.878;2023-02-03T10:00:43;100098.78;;;10.97;68.25
26823;BME280;14852;51.910;8.878;2023-02-03T10:03:36;100092.59;;;11.00;68.33
26823;BME280;14852;51.910;8.878;2023-02-03T10:09:46;100097.84;;;10.98;68.33
26823;BME280;14852;51.910;8.878;2023-02-03T10:12:33;100097.78;;;11.00;68.34
26823;BME280;14852;51.910;8.878;2023-02-03T10:18:13;100098.03;;;10.95;68.67
26823;BME280;14852;51.910;8.878;2023-02-03T10:20:52;100102.47;;;10.93;68.53
26823;BME280;14852;51.910;8.878;2023-02-03T10:23:29;100114.53;;;10.94;68.31
26823;BME280;14852;51.910;8.878;2023-02-03T10:26:04;100118.00;;;10.95;68.73
26823;BME280;14852;51.910;8.878;2023-02-03T10:28:39;100117.06;;;10.96;68.49
26823;BME280;14852;51.910;8.878;2023-02-03T10:31:21;100123.03;;;10.98;68.59
26823;BME280;14852;51.910;8.878;2023-02-03T10:34:08;100113.38;;;11.00;68.80
26823;BME280;14852;51.910;8.878;2023-02-03T10:36:57;100135.03;;;11.00;68.65
26823;BME280;14852;51.910;8.878;2023-02-03T10:39:42;100133.22;;;11.02;68.50
26823;BME280;14852;51.910;8.878;2023-02-03T10:42:11;100133.22;;;11.02;68.60
26823;BME280;14852;51.910;8.878;2023-02-03T10:47:36;100133.84;;;11.07;68.75
26823;BME280;14852;51.910;8.878;2023-02-03T10:50:19;100127.69;;;11.08;68.86
26823;BME280;14852;51.910;8.878;2023-02-03T10:52:45;100139.03;;;11.07;68.22
26823;BME280;14852;51.910;8.878;2023-02-03T10:57:47;100117.16;;;11.11;68.30
26823;BME280;14852;51.910;8.878;2023-02-03T11:00:31;100127.34;;;11.16;68.25
26823;BME280;14852;51.910;8.878;2023-02-03T11:03:07;100107.53;;;11.13;68.53
26823;BME280;14852;51.910;8.878;2023-02-03T11:05:39;100112.94;;;11.09;68.91
26823;BME280;14852;51.910;8.878;2023-02-03T11:08:15;100133.53;;;11.13;68.45
26823;BME280;14852;51.910;8.878;2023-02-03T11:10:42;100128.31;;;11.13;68.60
26823;BME280;14852;51.910;8.878;2023-02-03T11:13:24;100129.88;;;11.17;68.56
26823;BME280;14852;51.910;8.878;2023-02-03T11:18:59;100122.66;;;11.22;68.70
26823;BME280;14852;51.910;8.878;2023-02-03T11:21:52;100132.03;;;11.27;68.33
26823;BME280;14852;51.910;8.878;2023-02-03T11:24:35;100119.59;;;11.32;68.37
26823;BME280;14852;51.910;8.878;2023-02-03T11:27:12;100111.81;;;11.32;68.35
26823;BME280;14852;51.910;8.878;2023-02-03T11:29:48;100131.63;;;11.34;68.30
26823;BME280;14852;51.910;8.878;2023-02-03T11:32:35;100126.34;;;11.36;68.24
26823;BME280;14852;51.910;8.878;2023-02-03T11:35:24;100137.69;;;11.35;68.60
26823;BME280;14852;51.910;8.878;2023-02-03T11:37:54;100144.44;;;11.39;68.30
26823;BME280;14852;51.910;8.878;2023-02-03T11:40:22;100147.94;;;11.38;67.96
26823;BME280;14852;51.910;8.878;2023-02-03T11:47:58;100181.59;;;11.23;68.38
26823;BME280;14852;51.910;8.878;2023-02-03T11:51:10;100185.72;;;11.28;68.67
26823;BME280;14852;51.910;8.878;2023-02-03T11:59:46;100195.06;;;11.32;68.13
26823;BME280;14852;51.910;8.878;2023-02-03T12:02:55;100203.88;;;11.29;67.99
26823;BME280;14852;51.910;8.878;2023-02-03T12:08:07;100185.25;;;11.19;67.79
26823;BME280;14852;51.910;8.878;2023-02-03T12:11:05;100188.53;;;11.23;67.73
26823;BME280;14852;51.910;8.878;2023-02-03T12:19:33;100219.56;;;11.28;67.69
26823;BME280;14852;51.910;8.878;2023-02-03T12:22:44;100210.59;;;11.33;67.28
26823;BME280;14852;51.910;8.878;2023-02-03T12:29:03;100217.94;;;11.42;67.10
26823;BME280;14852;51.910;8.878;2023-02-03T12:31:43;100214.66;;;11.39;67.05
26823;BME280;14852;51.910;8.878;2023-02-03T12:37:20;100217.19;;;11.40;66.64
26823;BME280;14852;51.910;8.878;2023-02-03T12:40:02;100221.50;;;11.41;66.71
26823;BME280;14852;51.910;8.878;2023-02-03T12:42:39;100239.47;;;11.46;66.68
26823;BME280;14852;51.910;8.878;2023-02-03T12:45:10;100236.59;;;11.52;66.49
26823;BME280;14852;51.910;8.878;2023-02-03T12:47:46;100232.81;;;11.57;66.19
26823;BME280;14852;51.910;8.878;2023-02-03T12:50:22;100233.53;;;11.61;66.03
26823;BME280;14852;51.910;8.878;2023-02-03T12:53:13;100239.34;;;11.66;66.10
26823;BME280;14852;51.910;8.878;2023-02-03T12:55:45;100235.88;;;11.66;66.10
26823;BME280;14852;51.910;8.878;2023-02-03T12:58:26;100231.38;;;11.69;65.93
26823;BME280;14852;51.910;8.878;2023-02-03T13:01:22;100229.47;;;11.73;65.93
26823;BME280;14852;51.910;8.878;2023-02-03T13:06:47;100231.66;;;11.82;66.03
26823;BME280;14852;51.910;8.878;2023-02-03T13:09:58;100235.78;;;11.86;65.63
26823;BME280;14852;51.910;8.878;2023-02-03T13:12:31;100232.41;;;11.84;65.98
26823;BME280;14852;51.910;8.878;2023-02-03T13:15:27;100230.66;;;11.84;65.76
26823;BME280;14852;51.910;8.878;2023-02-03T13:18:04;100222.94;;;11.83;65.85
26823;BME280;14852;51.910;8.878;2023-02-03T13:20:34;100223.06;;;11.80;65.87
26823;BME280;14852;51.910;8.878;2023-02-03T13:23:05;100218.69;;;11.80;65.50
26823;BME280;14852;51.910;8.878;2023-02-03T13:25:55;100217.84;;;11.80;65.69
26823;BME280;14852;51.910;8.878;2023-02-03T13:34:25;100217.31;;;11.73;65.36
26823;BME280;14852;51.910;8.878;2023-02-03T13:42:43;100218.44;;;11.68;65.22
26823;BME280;14852;51.910;8.878;2023-02-03T13:45:32;100207.09;;;11.69;64.99
26823;BME280;14852;51.910;8.878;2023-02-03T13:48:21;100223.56;;;11.69;65.06
26823;BME280;14852;51.910;8.878;2023-02-03T13:51:00;100218.38;;;11.69;64.76
26823;BME280;14852;51.910;8.878;2023-02-03T13:53:27;100211.53;;;11.67;64.75
26823;BME280;14852;51.910;8.878;2023-02-03T13:56:00;100208.94;;;11.67;64.46
26823;BME280;14852;51.910;8.878;2023-02-03T13:58:30;100211.72;;;11.64;64.40
26823;BME280;14852;51.910;8.878;2023-02-03T14:01:01;100209.13;;;11.64;64.47
26823;BME280;14852;51.910;8.878;2023-02-03T14:05:55;100213.47;;;11.63;64.12
26823;BME280;14852;51.910;8.878;2023-02-03T14:16:51;100241.25;;;11.63;63.73
26823;BME280;14852;51.910;8.878;2023-02-03T14:22:06;100241.41;;;11.59;63.39
26823;BME280;14852;51.910;8.878;2023-02-03T14:24:43;100248.50;;;11.56;62.84
26823;BME280;14852;51.910;8.878;2023-02-03T14:27:21;100253.13;;;11.51;61.86
26823;BME280;14852;51.910;8.878;2023-02-03T14:30:09;100252.34;;;11.49;61.71
26823;BME280;14852;51.910;8.878;2023-02-03T14:32:57;100263.72;;;11.46;61.78
26823;BME280;14852;51.910;8.878;2023-02-03T14:35:39;100264.63;;;11.45;61.13
26823;BME280;14852;51.910;8.878;2023-02-03T14:38:10;100282.19;;;11.42;60.88
26823;BME280;14852;51.910;8.878;2023-02-03T14:40:56;100285.69;;;11.41;61.21
26823;BME280;14852;51.910;8.878;2023-02-03T14:43:51;100273.53;;;11.41;61.40
26823;BME280;14852;51.910;8.878;2023-02-03T14:46:51;100283.31;;;11.36;61.25